Time;durP1;ratioP1;P1;durP2;ratioP2;P2;SDS_P1;SDS_P2;PMS_P1;PMS_P2;Temp;Humidity;BMP_temperature;BMP_pressure;BME280_temperature;BME280_humidity;BME280_pressure;Samples;Min_cycle;Max_cycle;Signal;HPM_P1;HPM_P2
2023/03/21 00:02:07;;;;;;;6.10;5.20;;;;;;;11.41;76.73;98935.88;4989458;28;102939;-64
2023/03/21 00:04:35;;;;;;;5.87;5.00;;;;;;;11.15;77.59;98928.09;4988711;28;102676;-64
2023/03/21 00:07:25;;;;;;;5.37;3.87;;;;;;;11.35;76.83;98932.81;4989289;28;103249;-65
2023/03/21 00:09:54;;;;;;;5.33;4.47;;;;;;;11.54;75.52;98920.78;4979713;28;104231;-65
2023/03/21 00:12:36;;;;;;;6.03;4.90;;;;;;;11.47;76.32;98939.88;4986683;28;102837;-64
2023/03/21 00:15:05;;;;;;;4.37;3.97;;;;;;;11.55;75.82;98930.44;4985632;28;102700;-65
2023/03/21 00:17:34;;;;;;;6.67;5.40;;;;;;;11.38;77.02;98932.59;4990861;28;103709;-64
2023/03/21 00:20:05;;;;;;;6.27;5.10;;;;;;;11.03;78.77;98930.66;4987633;28;103206;-64
2023/03/21 00:22:35;;;;;;;5.83;5.13;;;;;;;11.09;78.02;98928.56;4984044;28;102624;-65
2023/03/21 00:25:04;;;;;;;7.07;5.57;;;;;;;11.07;78.07;98926.84;4990761;28;102727;-64
2023/03/21 00:27:32;;;;;;;7.73;6.20;;;;;;;11.16;77.42;98920.06;4962135;28;103763;-64
2023/03/21 00:30:22;;;;;;;7.37;4.77;;;;;;;11.30;76.57;98919.09;4971462;28;103432;-64
2023/03/21 00:32:50;;;;;;;6.90;4.80;;;;;;;11.42;75.71;98918.22;4991238;28;104289;-64
2023/03/21 00:35:23;;;;;;;7.17;6.10;;;;;;;11.47;75.08;98906.34;4965092;28;103021;-64
2023/03/21 00:38:13;;;;;;;5.57;4.80;;;;;;;11.49;75.29;98912.34;4962831;28;103322;-58
2023/03/21 00:40:41;;;;;;;6.60;4.77;;;;;;;11.51;75.00;98899.84;4971398;28;104280;-57
2023/03/21 00:43:18;;;;;;;8.73;6.07;;;;;;;11.53;75.14;98902.41;4959418;28;102701;-58
2023/03/21 00:45:46;;;;;;;8.17;5.50;;;;;;;11.52;75.28;98898.06;4969387;28;104111;-58
2023/03/21 00:48:18;;;;;;;5.93;4.20;;;;;;;11.54;75.06;98889.03;4987038;28;103297;-59
2023/03/21 00:50:46;;;;;;;6.03;5.43;;;;;;;11.43;75.33;98885.50;4965404;28;104051;-58
2023/03/21 00:53:16;;;;;;;7.47;5.33;;;;;;;11.04;76.54;98890.06;4989533;28;103895;-64
2023/03/21 00:55:46;;;;;;;5.90;4.10;;;;;;;11.17;76.52;98886.53;4986189;28;102617;-64
2023/03/21 00:58:15;;;;;;;6.03;4.20;;;;;;;11.33;75.56;98884.47;4991667;28;103412;-64
2023/03/21 01:00:46;;;;;;;7.20;5.60;;;;;;;11.15;75.90;98891.06;4986511;28;103399;-64
2023/03/21 01:03:15;;;;;;;8.20;5.53;;;;;;;11.16;75.33;98890.13;4974012;28;102745;-65
2023/03/21 01:06:05;;;;;;;4.70;4.30;;;;;;;11.21;75.45;98885.34;4991116;28;102660;-64
2023/03/21 01:08:40;;;;;;;8.13;5.87;;;;;;;11.27;75.11;98882.28;4994136;28;103277;-65
2023/03/21 01:11:23;;;;;;;7.87;5.30;;;;;;;11.26;75.21;98883.22;4988512;28;103276;-65
2023/03/21 01:13:52;;;;;;;6.10;4.40;;;;;;;11.37;74.51;98881.50;4995667;28;102689;-64
2023/03/21 01:16:34;;;;;;;6.87;5.50;;;;;;;11.35;74.35;98878.13;4977822;28;104181;-64
2023/03/21 01:19:04;;;;;;;6.53;5.43;;;;;;;11.16;75.53;98882.19;4973435;28;103428;-64
2023/03/21 01:21:44;;;;;;;7.03;5.90;;;;;;;11.12;75.11;98871.00;4974981;28;105377;-64
2023/03/21 01:24:13;;;;;;;6.20;4.97;;;;;;;11.13;75.41;98877.13;4993243;28;102657;-64
2023/03/21 01:26:42;;;;;;;6.17;4.40;;;;;;;11.23;75.39;98872.88;4987355;28;105289;-67
2023/03/21 01:29:10;;;;;;;6.10;4.77;;;;;;;11.31;74.67;98871.34;4966013;28;103302;-64
2023/03/21 01:31:39;;;;;;;4.83;3.93;;;;;;;11.37;74.71;98872.69;4971936;28;103266;-64
2023/03/21 01:34:07;;;;;;;4.53;3.27;;;;;;;11.44;74.95;98876.59;4961408;28;102748;-64
2023/03/21 01:36:35;;;;;;;5.00;3.80;;;;;;;11.47;75.50;98871.09;4969131;28;102801;-64
2023/03/21 01:39:07;;;;;;;5.73;5.00;;;;;;;11.26;76.70;98873.50;4970926;28;104442;-64
2023/03/21 01:41:39;;;;;;;5.27;4.00;;;;;;;11.30;77.47;98872.31;4968473;28;103146;-64
2023/03/21 01:44:23;;;;;;;4.20;3.80;;;;;;;11.33;77.41;98869.47;4963671;28;103435;-65
2023/03/21 01:46:53;;;;;;;8.50;4.30;;;;;;;11.29;77.21;98864.47;4968382;28;104292;-64
2023/03/21 01:49:48;;;;;;;5.67;4.20;;;;;;;11.32;77.12;98872.19;4978434;28;104156;-64
2023/03/21 01:52:32;;;;;;;6.47;4.40;;;;;;;11.34;76.65;98860.53;4965363;28;103435;-64
2023/03/21 01:55:12;;;;;;;4.17;3.77;;;;;;;11.38;76.68;98863.81;4975402;28;102721;-64
2023/03/21 01:58:04;;;;;;;6.20;5.20;;;;;;;11.37;76.13;98856.84;4977128;28;103831;-64
2023/03/21 02:01:07;;;;;;;5.30;4.63;;;;;;;11.26;76.95;98851.47;4939302;28;104739;-64
2023/03/21 02:03:49;;;;;;;7.83;5.07;;;;;;;11.07;77.47;98852.81;4973738;28;103331;-64
2023/03/21 02:06:39;;;;;;;8.20;5.53;;;;;;;11.04;77.76;98842.47;4994115;28;102660;-58
2023/03/21 02:09:26;;;;;;;4.33;3.87;;;;;;;11.15;77.54;98848.78;4969282;28;102934;-58
2023/03/21 02:11:55;;;;;;;6.47;5.60;;;;;;;11.13;77.72;98845.41;4992882;28;103307;-58
2023/03/21 02:14:32;;;;;;;7.33;5.50;;;;;;;11.04;78.30;98844.25;4970405;28;104186;-58
2023/03/21 02:17:12;;;;;;;5.97;5.37;;;;;;;11.11;78.09;98842.03;4975182;28;102631;-58
2023/03/21 02:20:16;;;;;;;4.80;4.30;;;;;;;11.13;78.15;98845.41;4978648;28;104089;-58
2023/03/21 02:23:03;;;;;;;4.33;3.93;;;;;;;11.11;78.03;98848.16;4992347;28;104167;-58
2023/03/21 02:25:58;;;;;;;4.07;3.60;;;;;;;11.16;77.83;98839.91;4975312;28;103267;-58
2023/03/21 02:28:35;;;;;;;8.30;6.20;;;;;;;10.96;78.55;98843.97;4990536;28;102837;-59
2023/03/21 02:31:21;;;;;;;4.93;4.20;;;;;;;10.90;79.99;98839.97;4969520;28;102703;-58
2023/03/21 02:34:22;;;;;;;6.23;4.97;;;;;;;10.84;80.25;98845.69;4974017;28;105483;-58
2023/03/21 02:37:02;;;;;;;8.63;5.47;;;;;;;10.52;81.45;98839.19;4970410;28;103488;-58
2023/03/21 02:39:41;;;;;;;8.00;5.77;;;;;;;10.32;82.60;98842.38;4965645;28;102717;-58
2023/03/21 02:42:20;;;;;;;7.20;5.70;;;;;;;10.66;81.45;98830.28;4979277;28;102738;-58
2023/03/21 02:44:58;;;;;;;5.87;4.70;;;;;;;10.84;80.10;98829.81;4965279;28;103275;-58
2023/03/21 02:47:34;;;;;;;9.57;5.20;;;;;;;10.94;79.20;98827.38;4971750;28;103199;-58
2023/03/21 02:50:12;;;;;;;6.17;5.57;;;;;;;10.91;79.73;98830.25;4987511;28;103064;-58
2023/03/21 02:52:48;;;;;;;7.17;5.93;;;;;;;10.57;81.03;98831.78;4984013;28;102966;-58
2023/03/21 02:55:21;;;;;;;7.30;5.20;;;;;;;10.66;81.13;98832.94;4973873;28;106028;-58
2023/03/21 02:58:01;;;;;;;7.60;5.53;;;;;;;10.33;81.81;98834.31;4971509;28;105260;-58
2023/03/21 03:00:44;;;;;;;6.40;5.80;;;;;;;10.27;81.98;98834.75;4991301;28;102615;-57
2023/03/21 03:03:19;;;;;;;6.63;5.50;;;;;;;10.40;81.89;98837.41;4976123;28;103032;-58
2023/03/21 03:06:05;;;;;;;7.27;5.63;;;;;;;10.34;81.95;98835.16;4987518;28;104633;-58
2023/03/21 03:08:47;;;;;;;7.97;5.70;;;;;;;10.40;81.88;98816.25;4971021;28;103236;-58
2023/03/21 03:11:31;;;;;;;6.27;5.60;;;;;;;10.38;81.89;98826.94;4993053;28;102712;-58
2023/03/21 03:14:19;;;;;;;6.07;5.43;;;;;;;10.38;81.74;98826.09;4971056;28;102783;-58
2023/03/21 03:17:18;;;;;;;5.87;5.00;;;;;;;10.26;82.71;98822.50;4961428;28;104051;-58
2023/03/21 03:20:05;;;;;;;5.70;4.10;;;;;;;10.47;81.86;98825.44;4973256;28;103309;-58
2023/03/21 03:22:52;;;;;;;5.50;4.00;;;;;;;10.64;80.75;98819.00;4974801;28;102672;-58
2023/03/21 03:25:27;;;;;;;5.33;4.50;;;;;;;10.73;79.87;98829.75;4973124;28;104023;-58
2023/03/21 03:28:14;;;;;;;6.33;5.40;;;;;;;10.63;79.97;98823.44;4975566;28;103797;-58
2023/03/21 03:30:45;;;;;;;7.70;5.70;;;;;;;10.47;81.07;98820.16;4966223;28;103289;-57
2023/03/21 03:33:37;;;;;;;5.63;5.10;;;;;;;10.56;80.93;98818.66;4974406;28;102734;-58
2023/03/21 03:36:09;;;;;;;5.13;4.63;;;;;;;10.56;80.91;98818.66;4973059;28;103028;-58
2023/03/21 03:38:48;;;;;;;5.80;5.23;;;;;;;10.48;81.32;98822.72;4974893;28;103273;-58
2023/03/21 03:41:24;;;;;;;4.67;4.10;;;;;;;10.58;81.34;98816.78;4971506;28;103442;-58
2023/03/21 03:44:01;;;;;;;4.50;4.10;;;;;;;10.66;81.30;98819.72;4968643;28;102805;-57
2023/03/21 03:46:39;;;;;;;6.03;5.50;;;;;;;10.64;80.93;98811.06;4973200;28;102858;-57
2023/03/21 03:49:14;;;;;;;6.13;4.57;;;;;;;10.69;80.65;98808.94;4969007;28;104500;-58
2023/03/21 03:51:50;;;;;;;6.67;5.33;;;;;;;10.27;82.21;98812.78;4973259;28;103185;-58
2023/03/21 03:54:44;;;;;;;6.10;4.73;;;;;;;10.36;82.88;98806.84;4983021;28;102680;-58
2023/03/21 03:57:17;;;;;;;5.03;4.53;;;;;;;10.32;82.81;98797.47;4974647;28;102971;-58
2023/03/21 03:59:46;;;;;;;5.53;4.97;;;;;;;10.34;82.99;98808.75;4953786;28;104252;-58
2023/03/21 04:02:22;;;;;;;7.33;5.20;;;;;;;10.33;82.85;98807.09;4973513;28;103633;-58
2023/03/21 04:04:52;;;;;;;6.37;4.70;;;;;;;10.37;82.52;98803.28;4980098;28;102811;-58
2023/03/21 04:07:22;;;;;;;7.50;5.27;;;;;;;10.32;82.91;98800.97;5000526;28;103765;-58
2023/03/21 04:09:53;;;;;;;5.87;5.17;;;;;;;10.44;82.79;98799.25;4969491;28;104205;-61
2023/03/21 04:12:23;;;;;;;5.67;5.13;;;;;;;10.24;82.54;98802.44;4973617;28;103074;-58
2023/03/21 04:15:11;;;;;;;5.50;4.97;;;;;;;10.25;83.36;98810.25;4992867;28;102717;-57
2023/03/21 04:17:45;;;;;;;7.43;4.80;;;;;;;10.22;83.28;98806.97;4962466;28;102866;-58
2023/03/21 04:20:14;;;;;;;6.17;5.13;;;;;;;10.22;82.95;98806.97;4976762;28;103318;-65
2023/03/21 04:23:01;;;;;;;4.80;4.27;;;;;;;10.32;82.64;98805.41;4976147;28;103183;-65
2023/03/21 04:25:30;;;;;;;7.13;4.93;;;;;;;10.31;82.31;98798.41;4971904;28;103126;-64
2023/03/21 04:28:05;;;;;;;6.37;4.30;;;;;;;10.20;82.82;98795.66;4967668;28;102908;-64
2023/03/21 04:30:45;;;;;;;6.07;4.47;;;;;;;10.18;82.89;98802.88;4988282;28;103297;-64
2023/03/21 04:33:28;;;;;;;6.13;5.33;;;;;;;10.02;83.87;98796.91;4994495;28;103602;-65
2023/03/21 04:35:57;;;;;;;5.83;4.80;;;;;;;10.01;83.73;98803.13;4973103;28;102760;-64
2023/03/21 04:38:32;;;;;;;6.37;4.97;;;;;;;10.07;83.51;98800.09;4964799;28;103501;-64
2023/03/21 04:41:04;;;;;;;7.97;5.50;;;;;;;9.98;83.45;98801.56;4971700;28;103257;-64
2023/03/21 04:43:33;;;;;;;5.63;5.00;;;;;;;10.01;83.55;98798.72;4974470;28;102895;-64
2023/03/21 04:46:01;;;;;;;5.53;5.07;;;;;;;9.96;83.28;98797.34;4995769;28;102713;-64
2023/03/21 04:48:29;;;;;;;5.63;5.10;;;;;;;10.02;82.60;98800.38;4965877;28;103898;-64
2023/03/21 04:51:00;;;;;;;7.13;5.30;;;;;;;9.78;83.07;98800.28;4974643;28;105424;-65
2023/03/21 04:53:31;;;;;;;7.23;5.03;;;;;;;9.72;84.22;98792.75;4978085;28;103337;-65
2023/03/21 04:55:59;;;;;;;7.60;5.57;;;;;;;9.76;83.85;98798.69;4993727;28;102642;-60
2023/03/21 04:58:27;;;;;;;6.80;5.20;;;;;;;9.72;83.12;98794.56;4987209;28;102725;-61
2023/03/21 05:00:57;;;;;;;6.03;4.73;;;;;;;9.67;84.50;98797.50;4974358;28;103249;-61
2023/03/21 05:03:27;;;;;;;7.07;5.47;;;;;;;9.63;84.15;98796.00;4985478;28;103294;-61
2023/03/21 05:05:55;;;;;;;5.43;4.40;;;;;;;9.69;84.19;98795.59;4972058;28;102978;-61
2023/03/21 05:08:23;;;;;;;5.67;4.17;;;;;;;9.86;83.57;98787.41;4979425;28;102703;-61
2023/03/21 05:10:51;;;;;;;4.20;3.80;;;;;;;9.96;82.80;98794.69;4970730;28;105151;-62
2023/03/21 05:13:20;;;;;;;4.40;3.70;;;;;;;9.98;82.75;98790.16;4974191;28;103118;-61
2023/03/21 05:15:49;;;;;;;10.40;4.07;;;;;;;9.95;82.49;98799.13;4976598;28;103382;-61
2023/03/21 05:18:23;;;;;;;4.60;3.80;;;;;;;9.99;82.36;98791.84;4974658;28;102770;-61
2023/03/21 05:21:12;;;;;;;4.30;3.87;;;;;;;10.01;82.55;98805.78;4988247;28;103361;-61
2023/03/21 05:23:40;;;;;;;6.00;4.93;;;;;;;10.05;82.28;98796.72;4970544;28;103207;-61
2023/03/21 05:26:10;;;;;;;7.63;5.40;;;;;;;9.96;82.49;98792.91;4974452;28;102735;-61
2023/03/21 05:28:48;;;;;;;5.27;4.17;;;;;;;9.83;83.83;98792.88;4976527;28;104056;-62
2023/03/21 05:31:18;;;;;;;3.87;3.53;;;;;;;10.01;83.02;98800.50;4990232;28;104117;-62
2023/03/21 05:33:50;;;;;;;6.17;4.37;;;;;;;10.10;82.44;98799.88;4977327;28;103233;-62
2023/03/21 05:36:20;;;;;;;5.63;4.63;;;;;;;9.79;84.37;98803.75;4975035;28;102703;-62
2023/03/21 05:38:48;;;;;;;5.00;4.50;;;;;;;9.93;84.16;98802.81;4976673;28;102702;-62
2023/03/21 05:41:17;;;;;;;5.77;4.87;;;;;;;10.07;83.29;98800.09;4969257;28;103224;-61
2023/03/21 05:43:47;;;;;;;5.60;4.77;;;;;;;9.99;83.35;98810.31;4969426;28;104199;-61
2023/03/21 05:46:15;;;;;;;5.03;4.40;;;;;;;10.11;83.44;98806.81;4977699;28;102787;-62
2023/03/21 05:48:47;;;;;;;7.57;5.03;;;;;;;10.14;82.46;98809.28;4975592;28;102682;-61
2023/03/21 05:51:18;;;;;;;6.53;4.23;;;;;;;10.08;83.39;98809.66;4957969;28;105253;-61
2023/03/21 05:53:47;;;;;;;4.90;4.40;;;;;;;10.14;83.46;98798.72;4975016;28;103427;-62
2023/03/21 05:56:16;;;;;;;6.17;4.67;;;;;;;10.18;83.31;98798.44;4971876;28;103337;-61
2023/03/21 05:58:49;;;;;;;7.10;5.43;;;;;;;10.04;83.79;98810.84;4978496;28;103216;-61
2023/03/21 06:01:18;;;;;;;6.40;4.90;;;;;;;10.22;83.52;98810.44;4971841;28;103343;-61
2023/03/21 06:04:02;;;;;;;6.97;5.70;;;;;;;10.15;83.44;98808.34;4994423;28;103581;-61
2023/03/21 06:06:32;;;;;;;6.37;5.77;;;;;;;10.26;84.11;98811.09;4975643;28;102757;-62
2023/03/21 06:09:02;;;;;;;4.90;3.90;;;;;;;10.45;83.16;98811.50;4978198;28;102723;-61
2023/03/21 06:11:34;;;;;;;4.47;4.07;;;;;;;10.55;82.68;98801.16;4971622;28;103225;-61
2023/03/21 06:14:28;;;;;;;4.23;3.57;;;;;;;10.64;82.24;98811.06;4990725;28;103129;-61
2023/03/21 06:17:14;;;;;;;4.57;3.60;;;;;;;10.70;81.61;98805.31;4978829;28;102623;-61
2023/03/21 06:19:48;;;;;;;7.70;5.27;;;;;;;10.71;81.25;98813.16;4976087;28;103982;-61
2023/03/21 06:22:44;;;;;;;6.27;4.73;;;;;;;10.56;81.02;98808.09;4982998;28;104036;-61
2023/03/21 06:25:12;;;;;;;5.60;5.00;;;;;;;10.69;80.91;98807.16;4974226;28;103202;-61
2023/03/21 06:27:42;;;;;;;4.60;4.00;;;;;;;10.71;80.59;98807.88;4975779;28;102842;-61
2023/03/21 06:30:12;;;;;;;4.03;3.40;;;;;;;10.68;80.34;98810.72;4976460;28;103921;-61
2023/03/21 06:32:51;;;;;;;5.73;3.20;;;;;;;10.77;80.01;98814.53;4974203;28;103904;-61
2023/03/21 06:35:19;;;;;;;4.23;3.67;;;;;;;10.87;79.46;98807.63;4961364;28;103297;-60
2023/03/21 06:37:49;;;;;;;6.10;4.37;;;;;;;10.87;79.23;98811.09;4953039;28;102931;-61
2023/03/21 06:40:21;;;;;;;4.40;4.00;;;;;;;10.91;79.52;98803.81;4968146;28;103885;-61
2023/03/21 06:42:50;;;;;;;5.30;3.70;;;;;;;10.97;78.94;98796.28;4979851;28;103310;-62
2023/03/21 06:45:19;;;;;;;7.63;4.70;;;;;;;10.87;79.06;98800.53;4967217;28;104748;-61
2023/03/21 06:47:47;;;;;;;5.13;3.70;;;;;;;10.85;79.70;98799.81;4968048;28;102916;-61
2023/03/21 06:50:25;;;;;;;4.23;3.43;;;;;;;10.98;79.20;98800.59;4966098;28;102949;-61
2023/03/21 06:52:58;;;;;;;6.07;4.53;;;;;;;11.09;78.46;98796.34;4966426;28;104034;-62
2023/03/21 06:55:28;;;;;;;5.97;4.70;;;;;;;10.98;78.64;98792.69;4953878;28;103313;-61
2023/03/21 06:57:59;;;;;;;5.00;4.13;;;;;;;11.06;79.22;98803.53;4967891;28;103170;-61
2023/03/21 07:00:27;;;;;;;5.97;4.80;;;;;;;11.19;78.92;98797.34;4995675;28;102660;-61
2023/03/21 07:02:55;;;;;;;4.47;3.50;;;;;;;11.35;78.47;98798.75;4970366;28;104207;-61
2023/03/21 07:05:26;;;;;;;5.63;4.57;;;;;;;11.45;77.24;98793.66;4974452;28;104428;-62
2023/03/21 07:07:55;;;;;;;5.60;4.57;;;;;;;11.46;76.75;98798.81;4975160;28;102702;-61
2023/03/21 07:10:27;;;;;;;4.20;3.80;;;;;;;11.32;77.79;98803.44;4974261;28;103758;-61
2023/03/21 07:13:02;;;;;;;7.27;4.63;;;;;;;11.53;76.77;98807.16;4988628;28;103534;-61
2023/03/21 07:15:46;;;;;;;9.30;4.53;;;;;;;11.30;76.33;98794.78;4967632;28;103416;-61
2023/03/21 07:18:13;;;;;;;4.13;3.17;;;;;;;11.53;75.95;98796.56;4973087;28;103336;-61
2023/03/21 07:20:49;;;;;;;4.83;3.83;;;;;;;11.61;76.25;98788.91;4976731;28;104017;-61
2023/03/21 07:23:20;;;;;;;5.63;3.83;;;;;;;11.67;75.81;98799.03;4975529;28;103292;-61
2023/03/21 07:25:48;;;;;;;4.57;3.80;;;;;;;12.08;74.08;98794.09;4970949;28;105889;-62
2023/03/21 07:28:17;;;;;;;6.90;4.30;;;;;;;12.28;72.42;98799.66;4977630;28;103012;-61
2023/03/21 07:30:51;;;;;;;5.30;4.80;;;;;;;12.21;72.24;98786.88;4974212;28;102798;-62
2023/03/21 07:33:19;;;;;;;3.93;3.60;;;;;;;12.68;71.71;98792.94;4976739;28;103455;-62
2023/03/21 07:35:47;;;;;;;4.17;3.70;;;;;;;13.06;70.03;98793.34;4976021;28;103461;-62
2023/03/21 07:38:16;;;;;;;4.80;4.17;;;;;;;13.01;69.95;98790.22;4971239;28;102654;-62
2023/03/21 07:40:47;;;;;;;4.33;3.93;;;;;;;13.13;67.91;98788.44;4974870;28;104121;-62
2023/03/21 07:43:16;;;;;;;6.90;4.03;;;;;;;13.35;67.74;98796.31;4973777;28;103316;-62
2023/03/21 07:45:57;;;;;;;4.83;3.47;;;;;;;13.87;66.93;98795.47;4969205;28;103295;-62
2023/03/21 07:48:27;;;;;;;7.67;4.43;;;;;;;14.06;65.16;98790.31;4985548;28;102825;-62
2023/03/21 07:50:55;;;;;;;5.37;3.80;;;;;;;14.27;64.83;98791.13;4993754;28;102727;-62
2023/03/21 07:53:25;;;;;;;5.73;3.53;;;;;;;14.52;64.76;98789.88;4975521;28;105135;-62
2023/03/21 07:55:55;;;;;;;6.50;4.63;;;;;;;13.17;65.63;98798.66;4983361;28;103244;-62
2023/03/21 07:58:23;;;;;;;5.37;4.63;;;;;;;14.22;64.40;98789.84;4990655;28;102668;-62
2023/03/21 08:00:52;;;;;;;7.33;4.80;;;;;;;14.04;66.89;98791.41;4985925;28;103984;-62
2023/03/21 08:03:20;;;;;;;7.77;4.30;;;;;;;14.88;64.35;98785.81;4990128;28;103881;-62
2023/03/21 08:05:48;;;;;;;6.00;4.53;;;;;;;15.29;61.55;98787.44;4984605;28;103359;-62
2023/03/21 08:08:16;;;;;;;4.23;3.30;;;;;;;15.94;60.40;98789.44;4985380;28;102787;-62
2023/03/21 08:10:44;;;;;;;5.33;4.17;;;;;;;15.70;60.92;98787.22;4996234;28;102748;-63
2023/03/21 08:13:14;;;;;;;4.57;3.87;;;;;;;16.02;59.70;98787.75;4985567;28;103250;-62
2023/03/21 08:15:42;;;;;;;6.77;4.37;;;;;;;16.32;59.51;98783.19;4986085;28;103204;-63
2023/03/21 08:18:12;;;;;;;4.37;3.90;;;;;;;16.47;58.44;98777.25;4984989;28;102718;-63
2023/03/21 08:20:40;;;;;;;5.70;4.23;;;;;;;16.51;56.26;98777.78;4985718;28;102735;-63
2023/03/21 08:23:08;;;;;;;8.00;4.10;;;;;;;16.69;57.02;98776.91;4987761;28;102949;-63
2023/03/21 08:25:36;;;;;;;6.83;4.13;;;;;;;16.96;54.52;98772.56;4987927;28;103227;-63
2023/03/21 08:28:05;;;;;;;7.57;4.23;;;;;;;17.06;55.78;98774.19;4990873;28;103706;-63
2023/03/21 08:30:34;;;;;;;4.50;3.57;;;;;;;17.38;51.72;98779.03;4994346;28;102679;-63
2023/03/21 08:33:03;;;;;;;5.53;3.57;;;;;;;17.42;54.12;98783.09;4983171;28;103275;-63
2023/03/21 08:35:31;;;;;;;4.57;3.50;;;;;;;17.51;52.95;98767.97;4976067;28;103241;-63
2023/03/21 08:38:02;;;;;;;4.90;3.97;;;;;;;18.09;54.88;98765.66;4987565;28;102690;-63
2023/03/21 08:40:30;;;;;;;5.47;3.50;;;;;;;17.85;51.98;98766.31;4971873;28;104257;-63
2023/03/21 08:42:58;;;;;;;5.10;4.10;;;;;;;16.99;52.34;98765.09;4991054;28;104075;-63
2023/03/21 08:45:26;;;;;;;4.40;3.40;;;;;;;16.88;54.00;98764.47;4988371;28;103191;-63
2023/03/21 08:47:56;;;;;;;4.13;3.45;;;;;;;17.91;51.28;98754.97;4987467;28;103007;-63
2023/03/21 08:50:28;;;;;;;5.68;3.30;;;;;;;18.05;51.24;98748.25;4992715;28;103895;-63
2023/03/21 08:52:56;;;;;;;4.85;4.00;;;;;;;17.50;49.68;98755.59;4991221;28;103033;-63
2023/03/21 08:55:24;;;;;;;3.97;3.08;;;;;;;18.61;50.53;98737.91;4992037;28;103201;-63
2023/03/21 08:57:52;;;;;;;5.95;3.70;;;;;;;18.66;49.24;98740.09;4989088;28;102678;-63
2023/03/21 09:00:21;;;;;;;6.50;3.45;;;;;;;18.58;49.47;98738.25;4989167;28;104229;-63
2023/03/21 09:02:53;;;;;;;4.57;3.08;;;;;;;18.34;51.13;98740.75;4993751;28;103187;-63
2023/03/21 09:05:24;;;;;;;3.70;3.20;;;;;;;19.10;49.07;98738.91;4992705;28;103203;-63
2023/03/21 09:07:53;;;;;;;5.70;3.60;;;;;;;18.68;48.80;98735.44;4989309;28;102710;-63
2023/03/21 09:10:23;;;;;;;3.80;3.30;;;;;;;17.66;48.50;98734.41;4987697;28;102711;-63
2023/03/21 09:12:54;;;;;;;2.85;2.45;;;;;;;18.08;50.74;98735.41;4992829;28;103988;-63
2023/03/21 09:15:24;;;;;;;4.07;3.05;;;;;;;18.86;46.25;98739.66;4974858;28;103233;-63
2023/03/21 09:17:57;;;;;;;6.85;2.80;;;;;;;19.84;44.92;98738.03;4992071;28;103084;-63
2023/03/21 09:20:31;;;;;;;3.67;2.53;;;;;;;19.33;47.69;98737.31;4990097;28;103138;-63
2023/03/21 09:23:00;;;;;;;5.03;2.63;;;;;;;16.48;49.11;98746.91;4967461;28;107033;-63
2023/03/21 09:25:29;;;;;;;5.20;2.78;;;;;;;18.37;49.48;98741.28;4993110;28;103261;-64
2023/03/21 09:27:59;;;;;;;2.95;2.60;;;;;;;19.59;46.16;98738.00;4971754;28;102824;-63
2023/03/21 09:30:28;;;;;;;4.30;2.50;;;;;;;20.18;44.66;98736.81;4993887;28;102837;-64
2023/03/21 09:33:00;;;;;;;3.13;2.67;;;;;;;20.10;43.67;98728.78;4980593;28;103601;-64
2023/03/21 09:35:31;;;;;;;3.05;2.65;;;;;;;19.99;44.33;98737.19;4995059;28;104294;-64
2023/03/21 09:38:00;;;;;;;3.63;2.45;;;;;;;19.69;43.72;98732.50;4995431;28;102726;-64
2023/03/21 09:40:48;;;;;;;4.28;2.92;;;;;;;19.32;44.30;98734.78;4990785;28;102764;-64
2023/03/21 09:43:29;;;;;;;3.00;2.08;;;;;;;20.02;43.49;98742.19;4993969;28;104022;-63
2023/03/21 09:46:05;;;;;;;3.15;2.22;;;;;;;18.33;45.78;98734.56;4994521;28;104811;-64
2023/03/21 09:48:38;;;;;;;2.72;2.17;;;;;;;19.27;46.24;98734.44;4996269;28;102719;-64
2023/03/21 09:51:28;;;;;;;4.72;3.10;;;;;;;19.90;42.70;98727.47;4993431;28;102846;-63
2023/03/21 09:54:01;;;;;;;2.60;2.20;;;;;;;20.85;41.32;98723.91;4994769;28;103295;-64
2023/03/21 09:56:31;;;;;;;2.55;1.70;;;;;;;20.56;40.05;98724.50;4995101;28;102967;-63
2023/03/21 09:59:01;;;;;;;4.88;2.00;;;;;;;20.64;40.88;98726.31;4990616;28;104758;-64
2023/03/21 10:01:33;;;;;;;6.03;1.90;;;;;;;20.06;42.26;98716.72;4996741;28;103589;-64
2023/03/21 10:04:04;;;;;;;3.35;2.05;;;;;;;19.80;41.66;98716.09;4995721;28;103716;-64
2023/03/21 10:06:38;;;;;;;3.83;2.15;;;;;;;19.45;42.26;98711.06;4989550;28;103342;-64
2023/03/21 10:09:15;;;;;;;2.28;2.03;;;;;;;18.00;42.48;98710.44;4977912;28;102689;-64
2023/03/21 10:11:49;;;;;;;3.45;2.17;;;;;;;16.90;44.67;98719.81;4990213;28;102869;-64
2023/03/21 10:14:21;;;;;;;3.10;2.10;;;;;;;17.16;45.08;98710.06;4994204;28;104008;-63
2023/03/21 10:16:56;;;;;;;2.58;1.75;;;;;;;17.71;43.42;98705.41;4996304;28;103343;-63
2023/03/21 10:19:27;;;;;;;2.05;1.67;;;;;;;17.76;45.09;98695.94;4995033;28;102666;-64
2023/03/21 10:21:57;;;;;;;1.90;1.63;;;;;;;17.92;45.18;98692.53;4979371;28;104003;-63
2023/03/21 10:24:33;;;;;;;3.85;2.28;;;;;;;16.95;44.89;98696.19;4996626;28;103677;-63
2023/03/21 10:27:03;;;;;;;4.43;2.22;;;;;;;16.74;44.53;98699.09;5000285;28;103884;-63
2023/03/21 10:29:35;;;;;;;3.42;2.60;;;;;;;17.06;44.27;98698.63;4999958;28;102763;-63
2023/03/21 10:32:04;;;;;;;4.07;2.50;;;;;;;17.21;43.84;98691.75;4997784;28;104092;-63
2023/03/21 10:34:38;;;;;;;3.63;1.80;;;;;;;18.24;42.88;98697.25;4998730;28;103344;-63
2023/03/21 10:37:08;;;;;;;2.10;1.70;;;;;;;18.41;41.86;98690.97;4995180;28;102580;-63
2023/03/21 10:39:40;;;;;;;2.30;1.70;;;;;;;19.13;44.34;98684.19;4993797;28;102665;-64
2023/03/21 10:42:17;;;;;;;3.50;2.00;;;;;;;19.37;43.37;98677.03;4996291;28;102773;-63
2023/03/21 10:44:48;;;;;;;3.10;1.55;;;;;;;18.86;43.00;98677.28;4984675;28;103246;-64
2023/03/21 10:47:20;;;;;;;1.92;1.83;;;;;;;18.75;42.29;98674.94;4974767;28;103210;-63
2023/03/21 10:49:48;;;;;;;3.67;1.80;;;;;;;19.39;43.43;98679.59;4975622;28;102778;-64
2023/03/21 10:52:38;;;;;;;2.63;1.67;;;;;;;20.30;39.87;98674.78;4995048;28;103559;-63
2023/03/21 10:55:17;;;;;;;2.13;1.80;;;;;;;20.35;41.56;98673.25;4968512;28;104632;-64
2023/03/21 10:57:46;;;;;;;6.10;1.95;;;;;;;19.88;40.06;98675.88;4984646;28;103197;-64
2023/03/21 11:00:21;;;;;;;3.28;1.67;;;;;;;20.47;39.28;98671.88;4996112;28;102739;-64
2023/03/21 11:02:51;;;;;;;1.58;1.48;;;;;;;20.37;39.19;98676.63;4992476;28;102622;-64
2023/03/21 11:05:23;;;;;;;3.35;1.80;;;;;;;19.59;40.25;98680.94;4975340;28;103499;-64
2023/03/21 11:08:04;;;;;;;3.42;2.53;;;;;;;17.35;42.95;98677.84;4994281;28;103210;-63
2023/03/21 11:10:34;;;;;;;3.78;1.88;;;;;;;18.46;43.55;98672.59;4978361;28;103104;-64
2023/03/21 11:13:07;;;;;;;2.65;2.05;;;;;;;19.32;41.93;98668.66;4996360;28;102638;-63
2023/03/21 11:15:48;;;;;;;2.88;2.20;;;;;;;17.96;45.17;98664.50;4989819;28;103253;-63
2023/03/21 11:18:20;;;;;;;6.50;2.70;;;;;;;18.16;44.06;98667.78;4993609;28;103227;-63
2023/03/21 11:20:52;;;;;;;2.75;2.40;;;;;;;18.16;44.76;98657.09;4990601;28;102663;-64
2023/03/21 11:23:28;;;;;;;4.47;3.10;;;;;;;17.99;45.44;98661.53;4977941;28;104107;-63
2023/03/21 11:25:59;;;;;;;3.42;2.92;;;;;;;17.72;45.63;98662.50;4992977;28;103210;-63
2023/03/21 11:28:43;;;;;;;2.95;2.17;;;;;;;18.09;46.89;98659.56;4994264;28;103416;-63
2023/03/21 11:31:12;;;;;;;3.92;2.80;;;;;;;17.59;45.59;98659.41;4994831;28;102621;-64
2023/03/21 11:33:52;;;;;;;3.80;2.88;;;;;;;17.80;45.63;98654.53;4995243;28;102685;-63
2023/03/21 11:36:33;;;;;;;4.55;3.08;;;;;;;17.70;44.26;98661.81;4973239;28;103297;-63
2023/03/21 11:39:15;;;;;;;3.05;2.17;;;;;;;17.80;44.40;98654.53;4993559;28;102982;-63
2023/03/21 11:41:48;;;;;;;3.05;2.47;;;;;;;18.31;45.46;98647.47;4987400;28;102933;-63
2023/03/21 11:44:27;;;;;;;6.88;2.58;;;;;;;18.10;44.67;98649.72;4995556;28;102647;-63
2023/03/21 11:46:55;;;;;;;4.93;2.88;;;;;;;17.59;45.83;98651.41;4972283;28;103840;-63
2023/03/21 11:49:25;;;;;;;4.50;2.38;;;;;;;17.89;46.38;98642.91;4990308;28;103203;-63
2023/03/21 11:52:14;;;;;;;2.75;2.55;;;;;;;17.80;47.33;98638.50;4989819;28;102629;-63
2023/03/21 11:55:10;;;;;;;3.63;2.25;;;;;;;18.15;44.90;98639.38;4993489;28;104043;-63
2023/03/21 11:57:47;;;;;;;3.40;2.72;;;;;;;18.22;44.45;98633.22;4992829;28;103272;-63
2023/03/21 12:00:21;;;;;;;3.10;2.80;;;;;;;18.15;43.92;98623.31;4993831;28;104358;-63